createdAt,value
2018-03-06T00:00:41.486Z,996.11
2018-03-06T00:01:41.511Z,996.09
2018-03-06T00:02:41.528Z,996.07
2018-03-06T00:03:41.538Z,996.03
2018-03-06T00:04:41.561Z,996.02
2018-03-06T00:05:41.582Z,996.02
2018-03-06T00:06:41.598Z,996.08
2018-03-06T00:07:41.615Z,996.10
2018-03-06T00:08:41.634Z,996.09
2018-03-06T00:09:41.910Z,996.09
2018-03-06T00:10:41.667Z,996.11
2018-03-06T00:11:41.687Z,996.11
2018-03-06T00:12:41.707Z,996.10
2018-03-06T00:13:41.732Z,996.12
2018-03-06T00:14:41.746Z,996.12
2018-03-06T00:15:41.766Z,996.09
2018-03-06T00:16:41.782Z,996.08
2018-03-06T00:17:41.806Z,996.13
2018-03-06T00:18:41.828Z,996.12
2018-03-06T00:19:41.838Z,996.08
2018-03-06T00:20:41.859Z,996.05
2018-03-06T00:21:41.878Z,996.10
2018-03-06T00:22:41.899Z,996.06
2018-03-06T00:23:41.960Z,996.06
2018-03-06T00:24:41.938Z,996.08
2018-03-06T00:25:41.948Z,996.09
2018-03-06T00:26:41.971Z,996.10
2018-03-06T00:27:41.987Z,996.08
2018-03-06T00:28:42.008Z,996.09
2018-03-06T00:29:42.033Z,996.09
2018-03-06T00:30:42.043Z,996.10
2018-03-06T00:31:42.057Z,996.09
2018-03-06T00:32:42.083Z,996.03
2018-03-06T00:33:42.101Z,996.00
2018-03-06T00:34:42.115Z,996.01
2018-03-06T00:35:42.131Z,995.99
2018-03-06T00:36:42.157Z,995.98
2018-03-06T00:37:42.169Z,995.96
2018-03-06T00:38:42.192Z,995.93
2018-03-06T00:39:42.207Z,995.98
2018-03-06T00:40:42.229Z,995.95
2018-03-06T00:41:42.246Z,995.97
2018-03-06T00:42:42.264Z,995.97
2018-03-06T00:43:42.286Z,995.95
2018-03-06T00:44:42.298Z,995.97
2018-03-06T00:45:42.322Z,995.98
2018-03-06T00:46:42.590Z,996.03
2018-03-06T00:47:42.361Z,995.97
2018-03-06T00:48:42.381Z,995.93
2018-03-06T00:49:42.399Z,995.94
2018-03-06T00:50:42.416Z,995.86
2018-03-06T00:51:42.425Z,995.88
2018-03-06T00:52:42.447Z,995.87
2018-03-06T00:53:42.468Z,995.86
2018-03-06T00:54:42.489Z,995.83
2018-03-06T00:55:42.513Z,995.86
2018-03-06T00:56:42.523Z,995.81
2018-03-06T00:57:42.539Z,995.84
2018-03-06T00:58:42.559Z,995.79
2018-03-06T00:59:42.575Z,995.78
2018-03-06T01:00:42.600Z,995.80
2018-03-06T01:01:42.612Z,995.78
2018-03-06T01:02:42.625Z,995.79
2018-03-06T01:03:42.646Z,995.82
2018-03-06T01:04:42.666Z,995.78
2018-03-06T01:05:42.687Z,995.82
2018-03-06T01:06:42.700Z,995.81
2018-03-06T01:07:42.718Z,995.81
2018-03-06T01:08:42.744Z,995.83
2018-03-06T01:09:42.756Z,995.84
2018-03-06T01:10:42.775Z,995.79
2018-03-06T01:11:42.795Z,995.75
2018-03-06T01:12:42.811Z,995.77
2018-03-06T01:13:42.829Z,995.81
2018-03-06T01:14:42.852Z,995.78
2018-03-06T01:15:42.864Z,995.81
2018-03-06T01:16:42.884Z,995.75
2018-03-06T01:17:42.899Z,995.74
2018-03-06T01:18:42.923Z,995.72
2018-03-06T01:19:42.934Z,995.78
2018-03-06T01:20:42.962Z,995.77
2018-03-06T01:21:42.975Z,995.78
2018-03-06T01:22:42.994Z,995.76
2018-03-06T01:23:43.263Z,995.73
2018-03-06T01:24:43.030Z,995.74
2018-03-06T01:25:43.045Z,995.70
2018-03-06T01:26:43.067Z,995.70
2018-03-06T01:27:43.089Z,995.71
2018-03-06T01:28:43.104Z,995.73
2018-03-06T01:29:43.120Z,995.74
2018-03-06T01:30:43.139Z,995.73
2018-03-06T01:31:43.152Z,995.71
2018-03-06T01:32:43.175Z,995.69
2018-03-06T01:33:43.195Z,995.67
2018-03-06T01:34:43.209Z,995.64
2018-03-06T01:35:43.225Z,995.64
2018-03-06T01:36:43.246Z,995.63
2018-03-06T01:37:43.264Z,995.60
2018-03-06T01:38:43.278Z,995.60
2018-03-06T01:39:43.298Z,995.59
2018-03-06T01:40:43.318Z,995.58
2018-03-06T01:41:43.586Z,995.57
2018-03-06T01:42:43.351Z,995.60
2018-03-06T01:43:43.368Z,995.57
2018-03-06T01:44:43.389Z,995.58
2018-03-06T01:45:43.404Z,995.56
2018-03-06T01:46:43.423Z,995.57
2018-03-06T01:47:43.443Z,995.57
2018-03-06T01:48:43.463Z,995.57
2018-03-06T01:49:43.483Z,995.55
2018-03-06T01:50:43.503Z,995.58
2018-03-06T01:51:43.513Z,995.53
2018-03-06T01:52:43.531Z,995.54
2018-03-06T01:53:43.547Z,995.54
2018-03-06T01:54:43.566Z,995.49
2018-03-06T01:55:43.583Z,995.47
2018-03-06T01:56:43.602Z,995.46
2018-03-06T01:57:43.875Z,995.50
2018-03-06T01:58:43.637Z,995.49
2018-03-06T01:59:43.653Z,995.47
2018-03-06T02:00:43.673Z,995.48
2018-03-06T02:01:43.692Z,995.49
2018-03-06T02:02:43.715Z,995.46
2018-03-06T02:03:43.728Z,995.42
2018-03-06T02:04:43.746Z,995.41
2018-03-06T02:05:43.768Z,995.41
2018-03-06T02:06:43.786Z,995.42
2018-03-06T02:07:43.799Z,995.39
2018-03-06T02:08:43.817Z,995.38
2018-03-06T02:09:43.837Z,995.39
2018-03-06T02:10:43.856Z,995.37
2018-03-06T02:11:43.870Z,995.37
2018-03-06T02:12:43.888Z,995.37
2018-03-06T02:13:43.906Z,995.35
2018-03-06T02:14:44.064Z,995.38
2018-03-06T02:15:43.937Z,995.38
2018-03-06T02:16:43.956Z,995.39
2018-03-06T02:17:43.979Z,995.37
2018-03-06T02:18:43.991Z,995.33
2018-03-06T02:19:44.014Z,995.35
2018-03-06T02:20:44.036Z,995.37
2018-03-06T02:21:44.055Z,995.38
2018-03-06T02:22:44.070Z,995.33
2018-03-06T02:23:44.080Z,995.35
2018-03-06T02:24:44.101Z,995.33
2018-03-06T02:25:44.118Z,995.32
2018-03-06T02:26:44.135Z,995.36
2018-03-06T02:27:44.153Z,995.33
2018-03-06T02:28:44.171Z,995.30
2018-03-06T02:29:44.188Z,995.28
2018-03-06T02:30:44.208Z,995.24
2018-03-06T02:31:44.224Z,995.22
2018-03-06T02:32:44.243Z,995.29
2018-03-06T02:33:44.263Z,995.28
2018-03-06T02:34:44.279Z,995.26
2018-03-06T02:35:44.291Z,995.28
2018-03-06T02:36:44.311Z,995.21
2018-03-06T02:37:44.330Z,995.21
2018-03-06T02:38:44.348Z,995.25
2018-03-06T02:39:44.366Z,995.23
2018-03-06T02:40:44.381Z,995.26
2018-03-06T02:41:44.401Z,995.22
2018-03-06T02:42:44.415Z,995.24
2018-03-06T02:43:44.435Z,995.25
2018-03-06T02:44:44.451Z,995.22
2018-03-06T02:45:44.473Z,995.19
2018-03-06T02:46:44.489Z,995.21
2018-03-06T02:47:44.506Z,995.21
2018-03-06T02:48:44.521Z,995.19
2018-03-06T02:49:44.539Z,995.17
2018-03-06T02:50:44.557Z,995.16
2018-03-06T02:51:44.579Z,995.13
2018-03-06T02:52:44.594Z,995.16
2018-03-06T02:53:44.609Z,995.15
2018-03-06T02:54:44.624Z,995.19
2018-03-06T02:55:44.644Z,995.15
2018-03-06T02:56:44.660Z,995.12
2018-03-06T02:57:44.684Z,995.12
2018-03-06T02:58:44.694Z,995.11
2018-03-06T02:59:44.717Z,995.08
2018-03-06T03:00:44.729Z,995.07
2018-03-06T03:01:44.755Z,995.07
2018-03-06T03:02:44.769Z,995.07
2018-03-06T03:03:44.787Z,995.07
2018-03-06T03:04:44.799Z,995.06
2018-03-06T03:05:44.921Z,995.06
2018-03-06T03:06:44.837Z,995.08
2018-03-06T03:07:44.854Z,995.07
2018-03-06T03:08:44.871Z,995.00
2018-03-06T03:09:44.888Z,995.07
2018-03-06T03:10:44.904Z,995.08
2018-03-06T03:11:44.924Z,995.08
2018-03-06T03:12:44.939Z,995.09
2018-03-06T03:13:44.959Z,995.09
2018-03-06T03:14:44.974Z,995.10
2018-03-06T03:15:44.993Z,995.07
2018-03-06T03:16:45.008Z,995.05
2018-03-06T03:17:45.282Z,995.08
2018-03-06T03:18:45.048Z,995.05
2018-03-06T03:19:45.062Z,995.07
2018-03-06T03:20:45.080Z,995.09
2018-03-06T03:21:45.098Z,995.06
2018-03-06T03:22:45.122Z,995.05
2018-03-06T03:23:45.437Z,995.05
2018-03-06T03:24:45.155Z,995.05
2018-03-06T03:25:45.167Z,995.07
2018-03-06T03:26:45.183Z,995.01
2018-03-06T03:27:45.198Z,995.03
2018-03-06T03:28:45.224Z,995.01
2018-03-06T03:29:45.232Z,994.98
2018-03-06T03:30:45.255Z,994.95
2018-03-06T03:31:45.268Z,994.94
2018-03-06T03:32:45.287Z,994.94
2018-03-06T03:33:45.302Z,994.91
2018-03-06T03:34:45.317Z,994.88
2018-03-06T03:35:45.337Z,994.90
2018-03-06T03:36:45.356Z,994.89
2018-03-06T03:37:45.374Z,994.84
2018-03-06T03:38:45.386Z,994.91
2018-03-06T03:39:45.408Z,994.90
2018-03-06T03:40:45.429Z,994.92
2018-03-06T03:41:45.442Z,994.92
2018-03-06T03:42:45.459Z,994.94
2018-03-06T03:43:45.477Z,994.94
2018-03-06T03:44:45.496Z,994.91
2018-03-06T03:45:45.511Z,994.92
2018-03-06T03:46:45.527Z,994.91
2018-03-06T03:47:45.547Z,994.93
2018-03-06T03:48:45.567Z,994.93
2018-03-06T03:49:45.582Z,994.92
2018-03-06T03:50:45.600Z,994.93
2018-03-06T03:51:45.617Z,994.94
2018-03-06T03:52:45.634Z,994.93
2018-03-06T03:53:45.646Z,994.96
2018-03-06T03:54:45.667Z,994.92
2018-03-06T03:55:45.685Z,994.94
2018-03-06T03:56:45.705Z,994.96
2018-03-06T03:57:45.719Z,994.95
2018-03-06T03:58:45.739Z,994.97
2018-03-06T03:59:46.001Z,994.97
2018-03-06T04:00:45.766Z,994.96
2018-03-06T04:01:45.785Z,994.95
2018-03-06T04:02:45.799Z,994.90
2018-03-06T04:03:45.823Z,994.89
2018-03-06T04:04:45.835Z,994.92
2018-03-06T04:05:45.859Z,994.91
2018-03-06T04:06:45.870Z,994.86
2018-03-06T04:07:45.891Z,994.91
2018-03-06T04:08:45.907Z,994.93
2018-03-06T04:09:45.922Z,994.94
2018-03-06T04:10:45.936Z,994.91
2018-03-06T04:11:45.955Z,994.97
2018-03-06T04:12:45.974Z,994.99
2018-03-06T04:13:45.999Z,994.96
2018-03-06T04:14:46.261Z,994.96
2018-03-06T04:15:46.025Z,994.92
2018-03-06T04:16:46.040Z,994.97
2018-03-06T04:17:46.056Z,994.97
2018-03-06T04:18:46.074Z,994.97
2018-03-06T04:19:46.090Z,995.01
2018-03-06T04:20:46.115Z,994.99
2018-03-06T04:21:46.128Z,994.98
2018-03-06T04:22:46.146Z,995.01
2018-03-06T04:23:46.163Z,995.00
2018-03-06T04:24:46.174Z,995.03
2018-03-06T04:25:46.194Z,995.00
2018-03-06T04:26:46.217Z,994.97
2018-03-06T04:27:46.233Z,994.99
2018-03-06T04:28:46.248Z,994.94
2018-03-06T04:29:46.269Z,994.93
2018-03-06T04:30:46.283Z,994.94
2018-03-06T04:31:46.295Z,994.88
2018-03-06T04:32:46.314Z,994.88
2018-03-06T04:33:46.328Z,994.88
2018-03-06T04:34:46.353Z,994.92
2018-03-06T04:35:46.368Z,994.86
2018-03-06T04:36:46.378Z,994.88
2018-03-06T04:37:46.404Z,994.86
2018-03-06T04:38:46.418Z,994.87
2018-03-06T04:39:46.431Z,994.85
2018-03-06T04:40:46.448Z,994.88
2018-03-06T04:41:46.465Z,994.87
2018-03-06T04:42:46.486Z,994.85
2018-03-06T04:43:46.500Z,994.89
2018-03-06T04:44:46.523Z,994.87
2018-03-06T04:45:46.538Z,994.83
2018-03-06T04:46:46.552Z,994.83
2018-03-06T04:47:46.572Z,994.84
2018-03-06T04:48:46.588Z,994.80
2018-03-06T04:49:46.606Z,994.84
2018-03-06T04:50:46.618Z,994.83
2018-03-06T04:51:46.634Z,994.86
2018-03-06T04:52:46.657Z,994.84
2018-03-06T04:53:46.671Z,994.81
2018-03-06T04:54:46.689Z,994.79
2018-03-06T04:55:46.702Z,994.78
2018-03-06T04:56:46.716Z,994.75
2018-03-06T04:57:46.743Z,994.74
2018-03-06T04:58:46.752Z,994.75
2018-03-06T04:59:46.768Z,994.69
2018-03-06T05:00:46.787Z,994.74
2018-03-06T05:01:46.806Z,994.75
2018-03-06T05:02:46.824Z,994.72
2018-03-06T05:03:46.837Z,994.70
2018-03-06T05:04:46.854Z,994.70
2018-03-06T05:05:46.878Z,994.74
2018-03-06T05:06:46.887Z,994.75
2018-03-06T05:07:46.908Z,994.74
2018-03-06T05:08:46.922Z,994.74
2018-03-06T05:09:46.941Z,994.72
2018-03-06T05:10:46.953Z,994.74
2018-03-06T05:11:46.973Z,994.69
2018-03-06T05:12:46.986Z,994.72
2018-03-06T05:13:47.009Z,994.76
2018-03-06T05:14:47.021Z,994.73
2018-03-06T05:15:47.037Z,994.72
2018-03-06T05:16:47.056Z,994.74
2018-03-06T05:17:47.072Z,994.74
2018-03-06T05:18:47.094Z,994.72
2018-03-06T05:19:47.121Z,994.73
2018-03-06T05:20:47.127Z,994.74
2018-03-06T05:21:47.143Z,994.69
2018-03-06T05:22:47.157Z,994.70
2018-03-06T05:23:47.174Z,994.72
2018-03-06T05:24:47.191Z,994.71
2018-03-06T05:25:47.210Z,994.73
2018-03-06T05:26:47.249Z,994.72
2018-03-06T05:27:47.243Z,994.73
2018-03-06T05:28:47.256Z,994.71
2018-03-06T05:29:47.276Z,994.72
2018-03-06T05:30:47.296Z,994.74
2018-03-06T05:31:47.306Z,994.71
2018-03-06T05:32:47.322Z,994.71
2018-03-06T05:33:47.344Z,994.73
2018-03-06T05:34:47.357Z,994.70
2018-03-06T05:35:47.377Z,994.72
2018-03-06T05:36:47.387Z,994.74
2018-03-06T05:37:47.410Z,994.75
2018-03-06T05:38:47.426Z,994.71
2018-03-06T05:39:47.445Z,994.69
2018-03-06T05:40:47.460Z,994.68
2018-03-06T05:41:47.475Z,994.70
2018-03-06T05:42:47.495Z,994.71
2018-03-06T05:43:47.513Z,994.67
2018-03-06T05:44:47.532Z,994.68
2018-03-06T05:45:47.546Z,994.65
2018-03-06T05:46:47.562Z,994.62
2018-03-06T05:47:47.574Z,994.61
2018-03-06T05:48:47.591Z,994.61
2018-03-06T05:49:47.610Z,994.62
2018-03-06T05:50:47.627Z,994.61
2018-03-06T05:51:47.741Z,994.62
2018-03-06T05:52:47.660Z,994.59
2018-03-06T05:53:47.675Z,994.63
2018-03-06T05:54:47.694Z,994.62
2018-03-06T05:55:47.710Z,994.63
2018-03-06T05:56:47.724Z,994.64
2018-03-06T05:57:47.743Z,994.65
2018-03-06T05:58:47.760Z,994.66
2018-03-06T05:59:47.775Z,994.69
2018-03-06T06:00:47.791Z,994.70
2018-03-06T06:01:48.065Z,994.68
2018-03-06T06:02:47.829Z,994.69
2018-03-06T06:03:47.840Z,994.67
2018-03-06T06:04:47.856Z,994.68
2018-03-06T06:05:47.874Z,994.68
2018-03-06T06:06:47.887Z,994.70
2018-03-06T06:07:47.916Z,994.67
2018-03-06T06:08:47.924Z,994.73
2018-03-06T06:09:47.942Z,994.71
2018-03-06T06:10:47.958Z,994.70
2018-03-06T06:11:48.222Z,994.73
2018-03-06T06:12:47.994Z,994.73
2018-03-06T06:13:48.009Z,994.69
2018-03-06T06:14:48.023Z,994.72
2018-03-06T06:15:48.044Z,994.68
2018-03-06T06:16:48.063Z,994.71
2018-03-06T06:17:48.076Z,994.73
2018-03-06T06:18:48.088Z,994.76
2018-03-06T06:19:48.108Z,994.74
2018-03-06T06:20:48.122Z,994.74
2018-03-06T06:21:48.146Z,994.73
2018-03-06T06:22:48.158Z,994.76
2018-03-06T06:23:48.172Z,994.73
2018-03-06T06:24:48.188Z,994.74
2018-03-06T06:25:48.206Z,994.72
2018-03-06T06:26:48.230Z,994.74
2018-03-06T06:27:48.237Z,994.73
2018-03-06T06:28:48.260Z,994.70
2018-03-06T06:29:48.276Z,994.69
2018-03-06T06:30:48.288Z,994.73
2018-03-06T06:31:48.308Z,994.72
2018-03-06T06:32:48.326Z,994.71
2018-03-06T06:33:48.337Z,994.71
2018-03-06T06:34:48.356Z,994.73
2018-03-06T06:35:48.377Z,994.67
2018-03-06T06:36:48.391Z,994.66
2018-03-06T06:37:48.406Z,994.69
2018-03-06T06:38:48.426Z,994.74
2018-03-06T06:39:48.442Z,994.70
2018-03-06T06:40:48.457Z,994.72
2018-03-06T06:41:48.476Z,994.75
2018-03-06T06:42:48.491Z,994.75
2018-03-06T06:43:48.508Z,994.78
2018-03-06T06:44:48.526Z,994.77
2018-03-06T06:45:48.541Z,994.78
2018-03-06T06:46:48.571Z,994.79
2018-03-06T06:47:48.570Z,994.76
2018-03-06T06:48:48.593Z,994.76
2018-03-06T06:49:48.611Z,994.78
2018-03-06T06:50:48.625Z,994.79
2018-03-06T06:51:48.640Z,994.79
2018-03-06T06:52:48.656Z,994.79
2018-03-06T06:53:48.922Z,994.78
2018-03-06T06:54:48.686Z,994.82
2018-03-06T06:55:48.707Z,994.79
2018-03-06T06:56:48.729Z,994.83
2018-03-06T06:57:48.746Z,994.80
2018-03-06T06:58:48.762Z,994.86
2018-03-06T06:59:48.780Z,994.85
2018-03-06T07:00:48.791Z,994.85
2018-03-06T07:01:48.811Z,994.83
2018-03-06T07:02:48.825Z,994.85
2018-03-06T07:03:48.844Z,994.88
2018-03-06T07:04:48.863Z,994.85
2018-03-06T07:05:48.878Z,994.85
2018-03-06T07:06:48.894Z,994.87
2018-03-06T07:07:48.920Z,994.85
2018-03-06T07:08:48.929Z,994.89
2018-03-06T07:09:48.945Z,994.88
2018-03-06T07:10:48.963Z,994.91
2018-03-06T07:11:48.974Z,994.89
2018-03-06T07:12:48.997Z,994.88
2018-03-06T07:13:49.014Z,994.88
2018-03-06T07:14:49.034Z,994.92
2018-03-06T07:15:49.066Z,994.92
2018-03-06T07:16:49.060Z,994.93
2018-03-06T07:17:49.081Z,994.92
2018-03-06T07:18:49.098Z,994.90
2018-03-06T07:19:49.116Z,994.93
2018-03-06T07:20:49.129Z,994.93
2018-03-06T07:21:49.144Z,994.95
2018-03-06T07:22:49.159Z,994.95
2018-03-06T07:23:49.182Z,994.96
2018-03-06T07:24:49.202Z,994.95
2018-03-06T07:25:49.214Z,995.00
2018-03-06T07:26:49.230Z,995.00
2018-03-06T07:27:49.250Z,994.98
2018-03-06T07:28:49.271Z,995.04
2018-03-06T07:29:49.288Z,995.04
2018-03-06T07:30:49.298Z,994.97
2018-03-06T07:31:49.316Z,995.01
2018-03-06T07:32:49.335Z,994.99
2018-03-06T07:33:49.356Z,994.99
2018-03-06T07:34:49.368Z,994.99
2018-03-06T07:35:49.384Z,994.98
2018-03-06T07:36:49.398Z,995.00
2018-03-06T07:37:49.417Z,994.96
2018-03-06T07:38:49.438Z,994.99
2018-03-06T07:39:49.456Z,995.04
2018-03-06T07:40:49.472Z,995.02
2018-03-06T07:41:49.512Z,994.97
2018-03-06T07:42:49.507Z,995.02
2018-03-06T07:43:49.523Z,995.03
2018-03-06T07:44:49.537Z,995.05
2018-03-06T07:45:49.553Z,995.02
2018-03-06T07:46:49.574Z,995.00
2018-03-06T07:47:49.590Z,995.06
2018-03-06T07:48:49.607Z,995.00
2018-03-06T07:49:49.627Z,995.01
2018-03-06T07:50:49.645Z,995.03
2018-03-06T07:51:49.658Z,995.00
2018-03-06T07:52:49.680Z,994.97
2018-03-06T07:53:49.693Z,994.98
2018-03-06T07:54:49.707Z,994.95
2018-03-06T07:55:49.728Z,995.02
2018-03-06T07:56:49.747Z,994.96
2018-03-06T07:57:49.761Z,994.98
2018-03-06T07:58:49.779Z,994.98
2018-03-06T07:59:49.798Z,994.94
2018-03-06T08:00:49.818Z,994.96
2018-03-06T08:01:49.832Z,994.97
2018-03-06T08:02:49.866Z,994.93
2018-03-06T08:03:49.875Z,994.98
2018-03-06T08:04:49.885Z,994.98
2018-03-06T08:05:49.902Z,994.93
2018-03-06T08:06:50.017Z,994.98
2018-03-06T08:07:49.939Z,994.96
2018-03-06T08:08:49.951Z,994.96
2018-03-06T08:09:49.975Z,994.99
2018-03-06T08:10:49.996Z,994.97
2018-03-06T08:11:50.256Z,994.95
2018-03-06T08:12:50.026Z,995.00
2018-03-06T08:13:50.046Z,995.00
2018-03-06T08:14:50.067Z,994.99
2018-03-06T08:15:50.077Z,994.97
2018-03-06T08:16:50.092Z,994.93
2018-03-06T08:17:50.116Z,994.96
2018-03-06T08:18:50.133Z,994.97
2018-03-06T08:19:50.151Z,994.97
2018-03-06T08:20:50.166Z,994.97
2018-03-06T08:21:50.181Z,994.98
2018-03-06T08:22:50.200Z,994.96
2018-03-06T08:23:50.217Z,994.99
2018-03-06T08:24:50.236Z,994.99
2018-03-06T08:25:50.259Z,995.01
2018-03-06T08:26:50.270Z,995.01
2018-03-06T08:27:50.290Z,995.00
2018-03-06T08:28:50.313Z,994.98
2018-03-06T08:29:50.335Z,994.97
2018-03-06T08:30:50.340Z,994.96
2018-03-06T08:31:50.367Z,994.94
2018-03-06T08:32:50.391Z,994.95
2018-03-06T08:33:50.395Z,994.96
2018-03-06T08:34:50.414Z,994.96
2018-03-06T08:35:50.438Z,994.93
2018-03-06T08:36:50.454Z,994.94
2018-03-06T08:37:50.470Z,994.96
2018-03-06T08:38:50.485Z,994.96
2018-03-06T08:39:50.505Z,994.96
2018-03-06T08:40:50.520Z,994.99
2018-03-06T08:41:50.539Z,995.04
2018-03-06T08:42:50.559Z,995.03
2018-03-06T08:43:50.575Z,995.01
2018-03-06T08:44:50.602Z,995.02
2018-03-06T08:45:50.609Z,995.03
2018-03-06T08:46:50.629Z,995.09
2018-03-06T08:47:50.650Z,995.06
2018-03-06T08:48:50.669Z,995.07
2018-03-06T08:49:50.689Z,995.07
2018-03-06T08:50:50.700Z,995.07
2018-03-06T08:51:50.972Z,995.08
2018-03-06T08:52:50.743Z,995.09
2018-03-06T08:53:50.762Z,995.04
2018-03-06T08:54:50.775Z,995.04
2018-03-06T08:55:50.790Z,995.03
2018-03-06T08:56:50.810Z,995.00
2018-03-06T08:57:50.829Z,995.02
2018-03-06T08:58:50.853Z,994.99
2018-03-06T08:59:50.869Z,995.03
2018-03-06T09:00:50.885Z,995.04
2018-03-06T09:01:50.904Z,995.01
2018-03-06T09:02:50.920Z,995.05
2018-03-06T09:03:50.944Z,995.04
2018-03-06T09:04:50.959Z,995.11
2018-03-06T09:05:50.982Z,995.08
2018-03-06T09:06:51.002Z,995.07
2018-03-06T09:07:51.016Z,995.04
2018-03-06T09:08:51.030Z,995.06
2018-03-06T09:09:51.048Z,995.08
2018-03-06T09:10:51.072Z,995.06
2018-03-06T09:11:51.094Z,995.05
2018-03-06T09:12:51.107Z,995.05
2018-03-06T09:13:51.227Z,995.03
2018-03-06T09:14:51.146Z,995.04
2018-03-06T09:15:51.159Z,995.03
2018-03-06T09:16:51.181Z,994.99
2018-03-06T09:17:51.195Z,995.00
2018-03-06T09:18:51.219Z,995.05
2018-03-06T09:19:51.237Z,995.02
2018-03-06T09:20:51.257Z,995.03
2018-03-06T09:21:51.267Z,995.03
2018-03-06T09:22:51.290Z,995.01
2018-03-06T09:23:51.310Z,995.03
2018-03-06T09:24:51.324Z,995.05
2018-03-06T09:25:51.346Z,995.05
2018-03-06T09:26:51.358Z,995.02
2018-03-06T09:27:51.386Z,995.04
2018-03-06T09:28:51.402Z,995.02
2018-03-06T09:29:51.420Z,995.04
2018-03-06T09:30:51.466Z,994.97
2018-03-06T09:31:51.456Z,994.98
2018-03-06T09:32:51.494Z,995.00
2018-03-06T09:33:51.500Z,994.96
2018-03-06T09:34:51.511Z,994.97
2018-03-06T09:35:51.531Z,994.99
2018-03-06T09:36:51.553Z,994.96
2018-03-06T09:37:51.572Z,994.96
2018-03-06T09:38:51.591Z,994.95
2018-03-06T09:39:51.604Z,994.96
2018-03-06T09:40:51.626Z,995.00
2018-03-06T09:41:51.646Z,995.01
2018-03-06T09:42:51.667Z,994.97
2018-03-06T09:43:51.680Z,994.99
2018-03-06T09:44:51.702Z,994.96
2018-03-06T09:45:51.715Z,994.94
2018-03-06T09:46:51.737Z,994.95
2018-03-06T09:47:51.756Z,994.92
2018-03-06T09:48:51.776Z,994.90
2018-03-06T09:49:51.796Z,994.93
2018-03-06T09:50:51.810Z,994.95
2018-03-06T09:51:51.835Z,994.95
2018-03-06T09:52:51.863Z,994.93
2018-03-06T09:53:51.871Z,994.94
2018-03-06T09:54:51.896Z,994.96
2018-03-06T09:55:51.915Z,994.94
2018-03-06T09:56:51.929Z,995.00
2018-03-06T09:57:51.950Z,994.97
2018-03-06T09:58:51.968Z,994.93
2018-03-06T09:59:51.983Z,994.95
2018-03-06T10:00:52.009Z,994.99
2018-03-06T10:01:52.024Z,994.93
2018-03-06T10:02:52.047Z,994.91
2018-03-06T10:04:52.077Z,994.90
2018-03-06T10:05:52.106Z,994.85
2018-03-06T10:06:52.217Z,994.83
2018-03-06T10:07:52.136Z,994.86
2018-03-06T10:08:52.153Z,994.82
2018-03-06T10:09:52.188Z,994.86
2018-03-06T10:10:52.197Z,994.90
2018-03-06T10:11:52.465Z,994.89
2018-03-06T10:12:52.238Z,994.94
2018-03-06T10:13:52.257Z,994.93
2018-03-06T10:14:52.270Z,994.93
2018-03-06T10:15:52.292Z,994.91
2018-03-06T10:16:52.316Z,994.96
2018-03-06T10:17:52.339Z,994.93
2018-03-06T10:18:52.350Z,994.88
2018-03-06T10:19:52.373Z,994.89
2018-03-06T10:20:52.393Z,994.92
2018-03-06T10:21:52.660Z,994.91
2018-03-06T10:22:52.430Z,994.89
2018-03-06T10:23:52.489Z,994.92
2018-03-06T10:24:52.465Z,994.83
2018-03-06T10:25:52.485Z,994.80
2018-03-06T10:26:52.509Z,994.84
2018-03-06T10:27:52.527Z,994.77
2018-03-06T10:28:52.545Z,994.74
2018-03-06T10:29:52.564Z,994.75
2018-03-06T10:30:52.583Z,994.80
2018-03-06T10:31:52.605Z,994.76
2018-03-06T10:32:52.625Z,994.79
2018-03-06T10:33:52.643Z,994.79
2018-03-06T10:34:52.664Z,994.78
2018-03-06T10:35:52.684Z,994.86
2018-03-06T10:36:52.719Z,994.78
2018-03-06T10:37:52.725Z,994.78
2018-03-06T10:38:52.747Z,994.81
2018-03-06T10:39:52.767Z,994.77
2018-03-06T10:40:52.784Z,994.77
2018-03-06T10:41:52.799Z,994.76
2018-03-06T10:42:52.817Z,994.74
2018-03-06T10:43:52.893Z,994.74
2018-03-06T10:44:52.858Z,994.75
2018-03-06T10:45:52.883Z,994.76
2018-03-06T10:46:52.910Z,994.75
2018-03-06T10:47:52.919Z,994.75
2018-03-06T10:48:52.952Z,994.76
2018-03-06T10:49:52.958Z,994.80
2018-03-06T10:50:52.982Z,994.80
2018-03-06T10:51:53.006Z,994.74
2018-03-06T10:52:53.023Z,994.73
2018-03-06T10:53:53.039Z,994.79
2018-03-06T10:54:53.065Z,994.80
2018-03-06T10:55:53.084Z,994.76
2018-03-06T10:56:53.111Z,994.86
2018-03-06T10:57:53.122Z,995.05
2018-03-06T10:58:53.143Z,995.34
2018-03-06T10:59:53.167Z,995.25
2018-03-06T11:00:53.191Z,995.30
2018-03-06T11:01:53.217Z,995.29
2018-03-06T11:02:53.230Z,995.28
2018-03-06T11:03:53.253Z,995.29
2018-03-06T11:04:53.281Z,995.33
2018-03-06T11:05:53.311Z,995.31
2018-03-06T11:06:53.313Z,995.31
2018-03-06T11:07:53.342Z,995.30
2018-03-06T11:08:53.358Z,995.31
2018-03-06T11:09:53.382Z,995.30
2018-03-06T11:10:53.407Z,995.37
2018-03-06T11:11:53.425Z,995.40
2018-03-06T11:12:53.454Z,995.48
2018-03-06T11:13:53.472Z,995.56
2018-03-06T11:14:53.500Z,995.52
2018-03-06T11:15:53.525Z,995.52
2018-03-06T11:16:53.541Z,995.54
2018-03-06T11:17:53.572Z,995.68
2018-03-06T11:18:53.604Z,995.73
2018-03-06T11:19:53.618Z,995.75
2018-03-06T11:20:53.639Z,995.86
2018-03-06T11:21:53.670Z,995.95
2018-03-06T11:22:53.695Z,996.04
2018-03-06T11:23:53.719Z,996.15
2018-03-06T11:24:53.743Z,996.20
2018-03-06T11:25:53.770Z,996.03
2018-03-06T11:26:53.797Z,996.18
2018-03-06T11:27:53.811Z,996.39
2018-03-06T11:28:53.844Z,996.54
2018-03-06T11:29:53.902Z,996.67
2018-03-06T11:30:53.891Z,997.07
2018-03-06T11:31:53.919Z,997.57
2018-03-06T11:32:53.946Z,997.59
2018-03-06T11:33:53.983Z,997.70
2018-03-06T11:34:54.002Z,997.76
2018-03-06T11:35:54.030Z,997.70
2018-03-06T11:36:54.056Z,997.65
2018-03-06T11:37:54.080Z,997.80
2018-03-06T11:38:54.114Z,997.70
2018-03-06T11:39:54.138Z,997.72
2018-03-06T11:40:54.169Z,997.81
2018-03-06T11:41:54.198Z,997.74
2018-03-06T11:42:54.222Z,997.57
2018-03-06T11:43:54.261Z,997.45
2018-03-06T11:44:54.285Z,997.33
2018-03-06T11:45:54.310Z,997.35
2018-03-06T11:46:54.347Z,997.48
2018-03-06T11:47:54.366Z,997.52
2018-03-06T11:48:54.395Z,997.38
2018-03-06T11:49:54.423Z,997.14
2018-03-06T11:50:54.455Z,997.31
2018-03-06T11:51:54.482Z,997.13
2018-03-06T11:52:54.515Z,996.83
2018-03-06T11:53:54.543Z,997.00
2018-03-06T11:54:54.576Z,996.97
2018-03-06T11:55:54.612Z,996.95
2018-03-06T11:56:54.640Z,996.75
2018-03-06T11:57:54.664Z,996.60
2018-03-06T11:58:54.701Z,996.46
2018-03-06T11:59:54.728Z,996.30
2018-03-06T12:00:54.757Z,996.15
2018-03-06T12:01:54.834Z,995.87
2018-03-06T12:02:54.815Z,995.68
2018-03-06T12:03:54.882Z,995.53
2018-03-06T12:04:54.873Z,995.31
2018-03-06T12:05:54.913Z,995.15
2018-03-06T12:06:54.944Z,994.95
2018-03-06T12:07:54.970Z,995.02
2018-03-06T12:08:55.004Z,995.04
2018-03-06T12:09:55.033Z,995.06
2018-03-06T12:10:55.065Z,995.04
2018-03-06T12:11:55.101Z,995.10
2018-03-06T12:12:55.129Z,995.13
2018-03-06T12:13:55.161Z,995.12
2018-03-06T12:14:55.193Z,995.11
2018-03-06T12:15:55.230Z,995.15
2018-03-06T12:16:55.262Z,995.14
2018-03-06T12:17:55.298Z,995.14
2018-03-06T12:18:55.332Z,995.06
2018-03-06T12:19:55.362Z,995.12
2018-03-06T12:20:55.398Z,995.07
2018-03-06T12:21:55.421Z,995.11
2018-03-06T12:22:55.456Z,995.21
2018-03-06T12:23:55.494Z,995.22
2018-03-06T12:24:55.525Z,995.26
2018-03-06T12:25:55.553Z,995.28
2018-03-06T12:26:55.585Z,995.22
2018-03-06T12:27:55.618Z,995.24
2018-03-06T12:28:55.667Z,995.14
2018-03-06T12:29:55.683Z,995.17